createdAt,value
2018-09-15T00:01:29.390Z,98927.54
2018-09-15T00:03:57.635Z,98927.05
2018-09-15T00:06:25.882Z,98930.69
2018-09-15T00:08:54.107Z,98929.83
2018-09-15T00:11:22.428Z,98927.63
2018-09-15T00:13:50.699Z,98935.20
2018-09-15T00:16:18.986Z,98932.52
2018-09-15T00:18:47.198Z,98934.72
2018-09-15T00:21:15.421Z,98930.31
2018-09-15T00:23:43.725Z,98939.64
2018-09-15T00:26:12.002Z,98940.58
2018-09-15T00:28:40.219Z,98942.33
2018-09-15T00:31:08.487Z,98943.67
2018-09-15T00:33:36.714Z,98941.44
2018-09-15T00:36:05.117Z,98942.91
2018-09-15T00:38:34.108Z,98948.65
2018-09-15T00:41:02.310Z,98947.80
2018-09-15T00:43:30.590Z,98944.25
2018-09-15T00:45:58.800Z,98949.14
2018-09-15T00:48:27.056Z,98948.28
2018-09-15T00:50:55.305Z,98939.81
2018-09-15T00:53:23.575Z,98954.52
2018-09-15T00:55:51.878Z,98952.31
2018-09-15T00:58:20.149Z,98955.50
2018-09-15T01:00:48.403Z,98961.24
2018-09-15T01:03:16.694Z,98958.64
2018-09-15T01:05:44.994Z,98957.70
2018-09-15T01:08:13.357Z,98968.82
2018-09-15T01:13:32.079Z,98967.59
2018-09-15T01:16:00.302Z,98967.59
2018-09-15T01:18:28.553Z,98969.80
2018-09-15T01:20:56.794Z,98961.73
2018-09-15T01:23:25.073Z,98959.53
2018-09-15T01:25:53.576Z,98957.70
2018-09-15T01:28:21.726Z,98957.70
2018-09-15T01:30:49.982Z,98955.01
2018-09-15T01:33:18.215Z,98957.20
2018-09-15T01:35:46.530Z,98953.17
2018-09-15T01:38:14.783Z,98956.35
2018-09-15T01:40:43.078Z,98965.36
2018-09-15T01:43:11.343Z,98969.39
2018-09-15T01:45:39.635Z,98972.48
2018-09-15T01:48:07.918Z,98972.48
2018-09-15T01:50:36.160Z,98970.66
2018-09-15T01:53:04.442Z,98974.32
2018-09-15T01:55:32.721Z,98976.12
2018-09-15T01:58:00.945Z,98974.77
2018-09-15T02:00:29.312Z,98985.08
2018-09-15T02:02:57.563Z,98980.16
2018-09-15T02:05:25.831Z,98986.50
2018-09-15T02:07:54.059Z,98990.05
2018-09-15T02:10:22.280Z,98991.88
2018-09-15T02:12:50.590Z,98988.22
2018-09-15T02:15:18.869Z,98991.02
2018-09-15T02:17:47.147Z,98991.88
2018-09-15T02:20:15.410Z,98993.72
2018-09-15T02:22:43.760Z,98985.65
2018-09-15T02:25:11.980Z,98984.79
2018-09-15T02:27:40.229Z,98982.55
2018-09-15T02:30:08.518Z,98979.87
2018-09-15T02:32:36.765Z,98984.39
2018-09-15T02:35:05.089Z,98980.76
2018-09-15T02:37:33.339Z,98978.92
2018-09-15T02:40:01.543Z,98978.44
2018-09-15T02:42:29.924Z,98991.88
2018-09-15T02:44:58.196Z,98991.02
2018-09-15T02:47:26.446Z,98995.91
2018-09-15T02:49:54.691Z,98987.48
2018-09-15T02:52:23.126Z,98990.17
2018-09-15T02:54:51.394Z,98998.23
2018-09-15T02:57:19.683Z,99002.27
2018-09-15T02:59:48.170Z,99002.72
2018-09-15T03:02:16.393Z,99009.84
2018-09-15T03:04:44.648Z,99008.10
2018-09-15T03:07:12.954Z,99001.87
2018-09-15T03:09:41.192Z,98999.17
2018-09-15T03:12:09.457Z,99008.10
2018-09-15T03:14:37.671Z,99007.24
2018-09-15T03:17:06.701Z,99013.97
2018-09-15T03:19:34.989Z,99011.68
2018-09-15T03:22:03.272Z,99016.66
2018-09-15T03:24:31.570Z,99022.03
2018-09-15T03:26:59.817Z,99018.00
2018-09-15T03:29:28.101Z,99021.55
2018-09-15T03:31:56.303Z,99028.38
2018-09-15T03:34:24.590Z,99024.72
2018-09-15T03:36:52.827Z,99024.84
2018-09-15T03:39:21.265Z,99039.14
2018-09-15T03:41:49.875Z,99040.86
2018-09-15T03:44:18.075Z,99043.66
2018-09-15T03:46:46.342Z,99035.59
2018-09-15T03:49:14.611Z,99041.83
2018-09-15T03:51:42.880Z,99040.86
2018-09-15T03:54:16.548Z,99045.86
2018-09-15T03:56:44.909Z,99046.35
2018-09-15T03:59:13.161Z,99044.12
2018-09-15T04:01:41.448Z,99052.19
2018-09-15T04:04:09.738Z,99052.19
2018-09-15T04:06:38.011Z,99053.53
2018-09-15T04:09:07.782Z,99054.88
2018-09-15T04:11:36.340Z,99059.80
2018-09-15T04:14:04.582Z,99067.95
2018-09-15T04:16:32.794Z,99066.97
2018-09-15T04:19:01.081Z,99064.77
2018-09-15T04:21:29.358Z,99066.03
2018-09-15T04:23:57.567Z,99072.27
2018-09-15T04:26:25.847Z,99078.98
2018-09-15T04:28:54.070Z,99082.66
2018-09-15T04:31:22.279Z,99089.27
2018-09-15T04:33:50.612Z,99088.03
2018-09-15T04:36:18.891Z,99088.89
2018-09-15T04:38:47.175Z,99091.58
2018-09-15T04:41:15.431Z,99094.75
2018-09-15T04:43:43.652Z,99100.13
2018-09-15T04:46:11.994Z,99099.23
2018-09-15T04:48:40.276Z,99105.96
2018-09-15T04:51:08.539Z,99110.41
2018-09-15T04:53:36.789Z,99113.58
2018-09-15T04:56:05.043Z,99113.66
2018-09-15T04:58:33.847Z,99116.72
2018-09-15T05:01:02.198Z,99122.09
2018-09-15T05:03:30.561Z,99119.03
2018-09-15T05:05:58.869Z,99124.41
2018-09-15T05:08:27.119Z,99126.25
2018-09-15T05:10:55.354Z,99122.70
2018-09-15T05:13:23.609Z,99129.88
2018-09-15T05:15:51.889Z,99126.73
2018-09-15T05:18:20.147Z,99134.80
2018-09-15T05:20:48.390Z,99130.77
2018-09-15T05:23:16.615Z,99139.28
2018-09-15T05:25:45.065Z,99132.67
2018-09-15T05:28:13.314Z,99137.56
2018-09-15T05:30:41.679Z,99129.98
2018-09-15T05:33:09.934Z,99134.88
2018-09-15T05:35:38.177Z,99131.33
2018-09-15T05:38:06.405Z,99134.39
2018-09-15T05:40:34.653Z,99138.05
2018-09-15T05:43:03.013Z,99138.99
2018-09-15T05:45:31.310Z,99146.13
2018-09-15T05:47:59.551Z,99150.53
2018-09-15T05:50:27.993Z,99154.19
2018-09-15T05:52:56.458Z,99155.53
2018-09-15T05:55:24.684Z,99160.50
2018-09-15T05:57:52.893Z,99154.67
2018-09-15T06:00:21.309Z,99163.19
2018-09-15T06:02:49.519Z,99162.73
2018-09-15T06:05:17.791Z,99164.09
2018-09-15T06:07:46.050Z,99165.42
2018-09-15T06:10:16.867Z,99166.28
2018-09-15T06:12:45.118Z,99159.64
2018-09-15T06:15:13.477Z,99164.16
2018-09-15T06:17:41.705Z,99163.67
2018-09-15T06:20:09.987Z,99167.70
2018-09-15T06:22:38.216Z,99174.44
2018-09-15T06:25:06.510Z,99174.92
2018-09-15T06:27:34.761Z,99176.63
2018-09-15T06:30:03.203Z,99179.33
2018-09-15T06:32:31.560Z,99178.95
2018-09-15T06:34:59.833Z,99183.84
2018-09-15T06:37:28.025Z,99190.56
2018-09-15T06:39:56.274Z,99192.77
2018-09-15T06:42:24.521Z,99188.73
2018-09-15T06:44:52.791Z,99192.39
2018-09-15T06:47:21.075Z,99192.88
2018-09-15T06:49:49.411Z,99192.47
2018-09-15T06:52:17.664Z,99204.12
2018-09-15T06:54:45.999Z,99204.69
2018-09-15T06:57:14.288Z,99207.75
2018-09-15T06:59:42.672Z,99211.89
2018-09-15T07:02:10.934Z,99221.19
2018-09-15T07:04:40.010Z,99223.99
2018-09-15T07:07:08.394Z,99220.33
2018-09-15T07:09:36.568Z,99222.53
2018-09-15T07:12:04.795Z,99231.57
2018-09-15T07:14:33.087Z,99231.09
2018-09-15T07:17:01.417Z,99239.08
2018-09-15T07:19:29.771Z,99244.05
2018-09-15T07:21:58.050Z,99246.36
2018-09-15T07:24:26.309Z,99248.08
2018-09-15T07:26:54.673Z,99245.87
2018-09-15T07:29:22.946Z,99250.28
2018-09-15T07:31:51.266Z,99249.91
2018-09-15T07:34:19.504Z,99249.42
2018-09-15T07:36:47.807Z,99259.24
2018-09-15T07:39:16.102Z,99253.45
2018-09-15T07:41:44.316Z,99256.55
2018-09-15T07:44:12.576Z,99263.27
2018-09-15T07:46:40.863Z,99260.66
2018-09-15T07:49:09.123Z,99259.24
2018-09-15T07:51:37.500Z,99257.41
2018-09-15T07:54:05.801Z,99255.20
2018-09-15T07:56:34.083Z,99249.83
2018-09-15T07:59:02.340Z,99256.06
2018-09-15T08:01:30.583Z,99256.06
2018-09-15T08:03:58.894Z,99257.90
2018-09-15T08:06:27.127Z,99256.06
2018-09-15T08:08:55.487Z,99260.59
2018-09-15T08:11:23.776Z,99258.84
2018-09-15T08:13:52.049Z,99257.48
2018-09-15T08:16:20.339Z,99254.31
2018-09-15T08:18:48.516Z,99250.28
2018-09-15T08:21:16.880Z,99256.15
2018-09-15T08:23:45.370Z,99254.31
2018-09-15T08:26:13.859Z,99257.90
2018-09-15T08:28:42.107Z,99266.90
2018-09-15T08:31:10.347Z,99272.28
2018-09-15T08:33:38.633Z,99267.39
2018-09-15T08:36:13.189Z,99263.27
2018-09-15T08:38:41.473Z,99272.20
2018-09-15T08:41:09.743Z,99269.11
2018-09-15T08:43:37.980Z,99269.22
2018-09-15T08:46:06.215Z,99271.42
2018-09-15T08:48:34.454Z,99265.97
2018-09-15T08:51:02.698Z,99273.62
2018-09-15T08:53:30.933Z,99272.69
2018-09-15T08:55:59.206Z,99280.75
2018-09-15T08:58:27.457Z,99277.58
2018-09-15T09:00:55.688Z,99279.78
2018-09-15T09:03:23.953Z,99281.98
2018-09-15T09:05:52.250Z,99283.33
2018-09-15T09:08:20.446Z,99280.64
2018-09-15T09:10:48.693Z,99283.33
2018-09-15T09:13:16.932Z,99281.12
2018-09-15T09:15:45.210Z,99279.30
2018-09-15T09:18:13.486Z,99276.72
2018-09-15T09:20:41.841Z,99283.81
2018-09-15T09:23:10.492Z,99283.81
2018-09-15T09:25:38.795Z,99292.26
2018-09-15T09:28:07.099Z,99298.53
2018-09-15T09:30:35.422Z,99292.26
2018-09-15T09:33:03.692Z,99292.26
2018-09-15T09:35:32.111Z,99291.40
2018-09-15T09:38:00.380Z,99286.02
2018-09-15T09:40:28.627Z,99285.53
2018-09-15T09:42:56.916Z,99284.30
2018-09-15T09:45:26.419Z,99286.02
2018-09-15T09:47:56.094Z,99286.50
2018-09-15T09:50:24.302Z,99286.88
2018-09-15T09:52:52.531Z,99291.40
2018-09-15T09:55:20.742Z,99291.88
2018-09-15T09:57:48.946Z,99295.54
2018-09-15T10:00:22.575Z,99291.66
2018-09-15T10:02:50.791Z,99288.97
2018-09-15T10:05:18.999Z,99289.87
2018-09-15T10:07:47.278Z,99293.41
2018-09-15T10:10:16.047Z,99286.20
2018-09-15T10:12:44.364Z,99279.97
2018-09-15T10:15:12.602Z,99279.00
2018-09-15T10:17:40.872Z,99275.08
2018-09-15T10:20:09.223Z,99276.31
2018-09-15T10:22:37.495Z,99275.94
2018-09-15T10:25:05.749Z,99275.45
2018-09-15T10:27:34.024Z,99276.42
2018-09-15T10:30:02.319Z,99278.22
2018-09-15T10:32:30.651Z,99275.08
2018-09-15T10:34:58.883Z,99267.88
2018-09-15T10:37:27.757Z,99261.16
2018-09-15T10:39:56.069Z,99262.87
2018-09-15T10:42:24.285Z,99264.21
2018-09-15T10:44:52.478Z,99271.42
2018-09-15T10:47:22.479Z,99269.59
2018-09-15T10:49:51.605Z,99274.48
2018-09-15T10:52:19.874Z,99267.61
2018-09-15T10:54:48.185Z,99270.37
2018-09-15T10:57:16.574Z,99279.78
2018-09-15T10:59:44.828Z,99276.23
2018-09-15T11:02:13.871Z,99277.17
2018-09-15T11:04:44.827Z,99265.97
2018-09-15T11:07:13.347Z,99268.66
2018-09-15T11:09:41.854Z,99281.20
2018-09-15T11:12:10.333Z,99279.86
2018-09-15T11:14:38.689Z,99275.53
2018-09-15T11:17:07.391Z,99280.45
2018-09-15T11:19:35.700Z,99278.22
2018-09-15T11:22:04.718Z,99280.45
2018-09-15T11:24:33.600Z,99284.37
2018-09-15T11:27:03.687Z,99277.28
2018-09-15T11:29:31.978Z,99277.77
2018-09-15T11:32:01.166Z,99283.22
2018-09-15T11:34:30.274Z,99275.16
2018-09-15T11:36:58.563Z,99277.06
2018-09-15T11:39:27.456Z,99277.92
2018-09-15T11:41:55.735Z,99277.06
2018-09-15T11:44:24.029Z,99272.95
2018-09-15T11:46:53.055Z,99271.61
2018-09-15T11:49:22.290Z,99268.06
2018-09-15T11:51:50.614Z,99269.86
2018-09-15T11:54:26.603Z,99261.42
2018-09-15T11:56:54.880Z,99266.72
2018-09-15T11:59:23.211Z,99267.66
2018-09-15T12:01:51.445Z,99268.63
2018-09-15T12:04:19.694Z,99270.34
2018-09-15T12:06:47.927Z,99272.17
2018-09-15T12:09:16.193Z,99256.52
2018-09-15T12:11:44.919Z,99261.05
2018-09-15T12:14:13.570Z,99256.11
2018-09-15T12:16:42.581Z,99256.11
2018-09-15T12:19:11.367Z,99256.11
2018-09-15T12:21:40.045Z,99251.70
2018-09-15T12:24:08.502Z,99251.70
2018-09-15T12:26:37.603Z,99245.47
2018-09-15T12:29:06.501Z,99244.13
2018-09-15T12:31:35.410Z,99243.27
2018-09-15T12:34:04.072Z,99258.43
2018-09-15T12:36:32.548Z,99251.23
2018-09-15T12:39:01.411Z,99247.67
2018-09-15T12:41:30.084Z,99242.30
2018-09-15T12:43:58.904Z,99243.64
2018-09-15T12:46:27.948Z,99246.33
2018-09-15T12:48:56.763Z,99244.98
2018-09-15T12:51:25.497Z,99242.30
2018-09-15T12:53:54.000Z,99244.13
2018-09-15T12:56:22.627Z,99237.89
2018-09-15T12:58:51.110Z,99234.80
2018-09-15T13:01:19.701Z,99233.45
2018-09-15T13:03:48.031Z,99230.69
2018-09-15T13:06:16.237Z,99222.22
2018-09-15T13:08:44.498Z,99228.48
2018-09-15T13:11:12.722Z,99223.48
2018-09-15T13:13:40.967Z,99215.91
2018-09-15T13:16:10.310Z,99220.02
2018-09-15T13:18:38.599Z,99224.45
2018-09-15T13:21:06.802Z,99225.80
2018-09-15T13:23:35.378Z,99227.14
2018-09-15T13:26:03.743Z,99223.11
2018-09-15T13:28:32.013Z,99221.36
2018-09-15T13:31:00.284Z,99213.21
2018-09-15T13:33:28.688Z,99210.12
2018-09-15T13:35:56.990Z,99207.35
2018-09-15T13:38:25.283Z,99210.04
2018-09-15T13:40:53.516Z,99211.38
2018-09-15T13:43:21.807Z,99214.85
2018-09-15T13:45:50.100Z,99211.59
2018-09-15T13:48:18.358Z,99212.53
2018-09-15T13:50:46.667Z,99210.25
2018-09-15T13:53:15.139Z,99204.59
2018-09-15T13:55:43.575Z,99210.81
2018-09-15T13:58:12.292Z,99209.95
2018-09-15T14:00:40.908Z,99202.75
2018-09-15T14:03:09.200Z,99205.45
2018-09-15T14:05:37.580Z,99201.70
2018-09-15T14:08:05.940Z,99215.15
2018-09-15T14:10:34.205Z,99199.88
2018-09-15T14:13:02.484Z,99204.28
2018-09-15T14:15:30.747Z,99200.36
2018-09-15T14:17:59.140Z,99207.45
2018-09-15T14:20:27.404Z,99194.98
2018-09-15T14:22:55.627Z,99196.33
2018-09-15T14:25:23.891Z,99199.02
2018-09-15T14:27:52.138Z,99198.53
2018-09-15T14:30:20.380Z,99195.47
2018-09-15T14:32:48.596Z,99194.13
2018-09-15T14:35:16.855Z,99192.37
2018-09-15T14:37:45.173Z,99190.09
2018-09-15T14:40:13.464Z,99193.72
2018-09-15T14:42:41.737Z,99190.17
2018-09-15T14:45:10.001Z,99189.31
2018-09-15T14:47:38.288Z,99190.17
2018-09-15T14:50:06.639Z,99191.03
2018-09-15T14:52:34.976Z,99182.97
2018-09-15T14:55:04.169Z,99185.28
2018-09-15T14:57:32.387Z,99183.74
2018-09-15T15:00:00.687Z,99184.52
2018-09-15T15:02:29.668Z,99181.83
2018-09-15T15:04:57.900Z,99183.26
2018-09-15T15:07:26.163Z,99180.00
2018-09-15T15:09:54.374Z,99182.40
2018-09-15T15:12:22.714Z,99183.06
2018-09-15T15:14:50.991Z,99179.92
2018-09-15T15:17:19.245Z,99178.09
2018-09-15T15:19:47.544Z,99182.50
2018-09-15T15:22:15.795Z,99180.67
2018-09-15T15:24:44.095Z,99180.67
2018-09-15T15:27:12.429Z,99182.42
2018-09-15T15:29:40.683Z,99182.50
2018-09-15T15:32:08.950Z,99184.33
2018-09-15T15:34:37.283Z,99189.33
2018-09-15T15:37:05.484Z,99188.28
2018-09-15T15:39:33.749Z,99185.59
2018-09-15T15:42:02.022Z,99181.08
2018-09-15T15:44:30.250Z,99183.65
2018-09-15T15:46:58.522Z,99183.20
2018-09-15T15:49:26.797Z,99176.48
2018-09-15T15:51:55.071Z,99190.66
2018-09-15T15:54:23.314Z,99185.28
2018-09-15T15:56:51.541Z,99186.26
2018-09-15T15:59:19.814Z,99195.11
2018-09-15T16:01:48.133Z,99187.61
2018-09-15T16:04:16.378Z,99194.25
2018-09-15T16:06:44.706Z,99194.25
2018-09-15T16:09:12.945Z,99195.97
2018-09-15T16:11:41.163Z,99198.28
2018-09-15T16:14:09.368Z,99200.48
2018-09-15T16:16:37.639Z,99192.98
2018-09-15T16:19:05.877Z,99191.27
2018-09-15T16:21:34.120Z,99193.95
2018-09-15T16:24:02.393Z,99197.98
2018-09-15T16:26:30.593Z,99206.13
2018-09-15T16:28:58.909Z,99201.61
2018-09-15T16:31:27.106Z,99198.55
2018-09-15T16:33:55.356Z,99202.59
2018-09-15T16:36:23.682Z,99209.31
2018-09-15T16:38:51.945Z,99213.83
2018-09-15T16:41:20.195Z,99212.94
2018-09-15T16:43:48.593Z,99214.28
2018-09-15T16:46:16.844Z,99210.25
2018-09-15T16:48:45.103Z,99219.28
2018-09-15T16:51:13.335Z,99216.22
2018-09-15T16:53:41.602Z,99221.11
2018-09-15T16:56:09.885Z,99217.56
2018-09-15T16:58:38.138Z,99222.95
2018-09-15T17:01:06.675Z,99221.97
2018-09-15T17:03:34.934Z,99222.05
2018-09-15T17:06:03.290Z,99214.88
2018-09-15T17:08:31.575Z,99217.56
2018-09-15T17:10:59.941Z,99214.47
2018-09-15T17:13:28.206Z,99227.54
2018-09-15T17:15:56.430Z,99228.77
2018-09-15T17:18:24.683Z,99228.89
2018-09-15T17:20:52.916Z,99234.64
2018-09-15T17:23:21.189Z,99242.22
2018-09-15T17:25:50.163Z,99237.44
2018-09-15T17:28:18.426Z,99238.30
2018-09-15T17:30:46.903Z,99242.70
2018-09-15T17:33:15.131Z,99244.53
2018-09-15T17:35:43.397Z,99247.70
2018-09-15T17:38:11.697Z,99247.30
2018-09-15T17:40:39.976Z,99249.23
2018-09-15T17:43:08.320Z,99256.15
2018-09-15T17:45:36.557Z,99258.46
2018-09-15T17:48:05.001Z,99263.73
2018-09-15T17:50:33.238Z,99253.94
2018-09-15T17:53:01.520Z,99262.01
2018-09-15T17:55:29.748Z,99275.94
2018-09-15T17:57:58.198Z,99272.39
2018-09-15T18:00:26.457Z,99281.31
2018-09-15T18:02:55.604Z,99275.08
2018-09-15T18:05:24.995Z,99275.08
2018-09-15T18:07:53.207Z,99283.14
2018-09-15T18:10:21.453Z,99286.69
2018-09-15T18:12:49.867Z,99289.45
2018-09-15T18:15:18.097Z,99287.17
2018-09-15T18:17:46.365Z,99291.66
2018-09-15T18:20:14.638Z,99291.66
2018-09-15T18:22:42.873Z,99296.29
2018-09-15T18:25:11.123Z,99292.26
2018-09-15T18:27:39.355Z,99297.63
2018-09-15T18:30:07.715Z,99295.88
2018-09-15T18:32:35.970Z,99299.43
2018-09-15T18:35:05.505Z,99299.43
2018-09-15T18:37:34.078Z,99305.70
2018-09-15T18:40:02.348Z,99309.33
2018-09-15T18:42:30.548Z,99312.98
2018-09-15T18:44:58.800Z,99309.33
2018-09-15T18:47:30.189Z,99311.64
2018-09-15T18:49:58.517Z,99317.88
2018-09-15T18:52:26.732Z,99320.56
2018-09-15T18:54:56.112Z,99320.08
2018-09-15T18:57:24.471Z,99322.39
2018-09-15T18:59:53.534Z,99318.36
2018-09-15T19:02:22.011Z,99316.91
2018-09-15T19:04:50.230Z,99317.50
2018-09-15T19:07:18.479Z,99314.22
2018-09-15T19:09:49.597Z,99316.05
2018-09-15T19:12:17.806Z,99315.56
2018-09-15T19:14:46.886Z,99319.14
2018-09-15T19:17:15.067Z,99317.88
2018-09-15T19:19:43.805Z,99321.42
2018-09-15T19:22:12.310Z,99329.41
2018-09-15T19:24:41.422Z,99326.61
2018-09-15T19:27:09.682Z,99330.83
2018-09-15T19:29:38.135Z,99338.04
2018-09-15T19:32:06.403Z,99339.86
2018-09-15T19:34:34.612Z,99335.35
2018-09-15T19:37:02.837Z,99331.80
2018-09-15T19:39:31.188Z,99335.83
2018-09-15T19:42:00.915Z,99338.52
2018-09-15T19:44:29.237Z,99339.01
2018-09-15T19:46:57.487Z,99339.01
2018-09-15T19:49:25.767Z,99339.86
2018-09-15T19:51:53.989Z,99334.08
2018-09-15T19:54:22.266Z,99332.73
2018-09-15T19:56:50.520Z,99332.36
2018-09-15T19:59:19.067Z,99331.98
2018-09-15T20:01:47.175Z,99335.53
2018-09-15T20:04:15.424Z,99331.98
2018-09-15T20:06:43.668Z,99333.78
2018-09-15T20:09:12.955Z,99335.61
2018-09-15T20:11:41.191Z,99333.41
2018-09-15T20:14:11.705Z,99331.20
2018-09-15T20:16:38.847Z,99336.58
2018-09-15T20:19:05.979Z,99336.66
2018-09-15T20:21:33.115Z,99340.20
2018-09-15T20:24:02.275Z,99341.55
2018-09-15T20:26:32.444Z,99338.48
2018-09-15T20:29:01.724Z,99341.09
2018-09-15T20:31:30.099Z,99345.98
2018-09-15T20:33:58.376Z,99347.70
2018-09-15T20:36:27.290Z,99352.78
2018-09-15T20:38:55.556Z,99347.41
2018-09-15T20:41:23.771Z,99353.64
2018-09-15T20:43:52.238Z,99347.89
2018-09-15T20:46:20.502Z,99344.64
2018-09-15T20:48:48.710Z,99344.23
2018-09-15T20:51:16.914Z,99344.72
2018-09-15T20:53:45.173Z,99340.61
2018-09-15T20:56:14.106Z,99336.17
2018-09-15T20:58:42.382Z,99336.77
2018-09-15T21:01:10.655Z,99338.86
2018-09-15T21:03:38.909Z,99333.97
2018-09-15T21:06:07.193Z,99330.49
2018-09-15T21:08:35.414Z,99339.91
2018-09-15T21:11:03.630Z,99343.08
2018-09-15T21:13:31.862Z,99351.14
2018-09-15T21:16:00.310Z,99337.70
2018-09-15T21:18:28.442Z,99348.56
2018-09-15T21:20:56.760Z,99351.14
2018-09-15T21:23:25.017Z,99354.80
2018-09-15T21:25:53.591Z,99353.93
2018-09-15T21:28:21.888Z,99357.97
2018-09-15T21:30:50.199Z,99356.62
2018-09-15T21:33:18.483Z,99352.48
2018-09-15T21:35:46.822Z,99350.28
2018-09-15T21:38:15.089Z,99348.94
2018-09-15T21:40:43.414Z,99353.45
2018-09-15T21:43:11.990Z,99355.58
2018-09-15T21:45:40.382Z,99359.69
2018-09-15T21:48:08.781Z,99357.97
2018-09-15T21:50:37.143Z,99357.97
2018-09-15T21:53:05.392Z,99360.66
2018-09-15T21:55:33.602Z,99364.20
2018-09-15T21:58:01.866Z,99364.20
2018-09-15T22:00:30.109Z,99363.34
2018-09-15T22:02:58.403Z,99367.45
2018-09-15T22:05:26.745Z,99365.73
2018-09-15T22:07:55.056Z,99360.80
2018-09-15T22:10:23.272Z,99363.04
2018-09-15T22:12:51.539Z,99371.55
2018-09-15T22:15:26.983Z,99365.80
2018-09-15T22:17:57.023Z,99372.52
2018-09-15T22:20:25.291Z,99366.66
2018-09-15T22:22:53.590Z,99363.59
2018-09-15T22:25:21.801Z,99375.14
2018-09-15T22:27:50.127Z,99372.45
2018-09-15T22:30:18.645Z,99371.55
2018-09-15T22:32:46.910Z,99367.63
2018-09-15T22:35:15.202Z,99376.17
2018-09-15T22:37:43.456Z,99378.38
2018-09-15T22:40:11.723Z,99371.55
2018-09-15T22:42:40.109Z,99372.03
2018-09-15T22:45:08.388Z,99365.73
2018-09-15T22:47:36.682Z,99364.45
2018-09-15T22:50:05.426Z,99362.15
2018-09-15T22:52:33.816Z,99361.70
2018-09-15T22:55:02.119Z,99359.56
2018-09-15T22:57:30.452Z,99362.25
2018-09-15T22:59:58.865Z,99360.05
2018-09-15T23:02:27.153Z,99360.05
2018-09-15T23:04:55.470Z,99356.88
2018-09-15T23:07:23.778Z,99360.91
2018-09-15T23:09:52.030Z,99360.05
2018-09-15T23:12:20.469Z,99365.42
2018-09-15T23:14:48.766Z,99360.53
2018-09-15T23:17:18.065Z,99360.53
2018-09-15T23:19:46.389Z,99360.53
2018-09-15T23:22:14.857Z,99364.16
2018-09-15T23:24:43.094Z,99359.64
2018-09-15T23:27:11.465Z,99356.09
2018-09-15T23:29:39.721Z,99354.27
2018-09-15T23:32:08.028Z,99353.41
2018-09-15T23:34:36.371Z,99358.78
2018-09-15T23:37:04.914Z,99349.86
2018-09-15T23:39:33.147Z,99353.96
2018-09-15T23:42:01.422Z,99349.07
2018-09-15T23:44:29.643Z,99340.52
2018-09-15T23:46:57.973Z,99345.52
2018-09-15T23:49:26.463Z,99336.11
2018-09-15T23:51:55.108Z,99338.31
2018-09-15T23:54:23.385Z,99333.80
2018-09-15T23:56:51.709Z,99336.97
2018-09-15T23:59:20.580Z,99331.70
